Date,TemperatureHighF,TemperatureAvgF,TemperatureLowF,DewpointHighF,DewpointAvgF,DewpointLowF,HumidityHigh,HumidityAvg,HumidityLow,PressureMaxIn,PressureMinIn,WindSpeedMaxMPH,WindSpeedAvgMPH,GustSpeedMaxMPH,PrecipitationSumIn
2013-1-9,52.2,45.8,42.3,50.3,38.9,-99.9,98,81,75,29.82,29.73,7,-18,0,0.00
2013-1-10,51.8,43.7,38.8,36.9,34.5,32.1,85,71,52,29.93,29.81,7,2,0,0.00
2013-1-11,51.8,43.4,37.4,40.7,35.8,30.1,90,75,59,30.00,29.86,5,1,0,0.00
2013-1-12,48.0,41.7,36.0,37.5,31.6,21.6,93,69,37,29.99,29.88,5,1,0,0.00
2013-1-13,47.3,40.2,31.3,34.5,25.4,16.6,83,57,35,30.00,29.92,9,2,0,0.00
2013-1-14,47.7,41.8,34.9,34.0,21.7,14.3,80,47,28,30.13,29.96,9,3,0,0.00
2013-1-15,51.3,43.3,37.0,36.4,31.2,25.9,94,64,37,30.20,30.12,8,2,0,0.00
2013-1-16,54.5,45.0,37.4,37.9,34.8,32.9,93,69,45,30.14,29.95,6,2,0,0.00
2013-1-17,60.1,48.5,39.4,38.6,34.0,31.8,85,59,35,29.96,29.86,7,2,0,0.00
2013-1-18,61.2,50.5,43.7,40.1,35.4,31.2,83,58,33,29.93,29.85,7,2,0,0.00
2013-1-19,60.4,49.7,42.3,39.2,35.0,31.6,82,58,36,29.96,29.87,6,2,0,0.00
2013-1-20,61.2,50.1,41.0,38.5,33.9,30.7,79,56,32,29.94,29.85,7,2,0,0.00
2013-1-21,60.6,50.5,42.6,39.4,36.7,32.8,77,60,42,29.90,29.80,6,3,0,0.00
2013-1-22,58.5,51.5,43.3,42.0,39.4,36.2,86,64,49,29.83,29.72,6,2,0,0.00
2013-1-23,53.8,51.2,48.9,50.5,45.1,39.2,99,81,58,29.81,29.68,4,1,0,0.24
2013-1-24,56.8,52.2,48.9,51.1,50.0,48.4,99,93,80,29.92,29.79,6,2,0,0.00
2013-1-25,63.3,55.1,50.7,53.7,51.5,49.0,99,88,71,29.92,29.78,5,2,0,0.00
2013-1-26,56.8,50.3,46.0,49.7,45.2,41.3,99,83,64,29.82,29.74,5,3,0,0.00
2013-1-27,55.9,47.2,40.6,41.9,38.4,34.5,86,72,52,29.92,29.81,6,2,0,0.00
2013-1-28,57.7,48.1,42.3,43.8,40.4,35.9,93,75,56,30.04,29.91,5,2,0,0.00
2013-1-29,57.2,48.8,43.0,45.8,42.2,39.8,91,79,60,30.10,30.00,4,1,0,0.00
2013-1-30,63.9,52.4,45.0,48.8,43.3,39.6,91,72,45,30.08,29.99,4,1,0,0.00
2013-1-31,61.0,52.4,43.5,46.2,44.1,41.6,93,74,57,30.02,29.91,6,2,0,0.00
2013-2-1,62.6,52.9,44.6,47.2,45.1,43.3,98,76,53,29.95,29.85,6,2,0,0.00
2013-2-2,69.1,51.1,46.0,57.7,47.2,43.2,99,88,56,30.03,29.94,4,2,0,7.41
2013-2-3,57.9,49.4,43.2,46.9,44.0,40.2,97,82,62,29.99,29.88,5,2,0,0.00
2013-2-4,57.0,47.8,45.3,48.8,45.6,43.3,99,92,74,29.91,29.80,6,2,0,0.00
2013-2-5,54.3,48.5,44.6,47.5,44.5,40.5,94,86,75,29.88,29.80,5,2,0,0.00
2013-2-6,57.4,47.6,39.0,46.5,42.7,37.2,96,84,56,29.93,29.86,5,1,0,0.00
2013-2-7,53.6,46.6,40.5,47.4,42.9,38.2,97,88,67,29.90,29.72,6,1,0,0.23
2013-2-8,53.1,45.3,39.4,43.0,38.6,27.4,98,79,45,29.75,29.66,6,2,0,0.10
2013-2-9,57.2,47.9,40.8,40.0,32.2,23.7,86,56,29,29.82,29.73,7,2,0,0.00
2013-2-10,57.6,47.5,37.9,44.7,38.4,32.5,94,73,42,29.85,29.76,4,1,0,0.00
2013-2-11,61.7,51.6,43.3,46.2,35.7,26.3,94,58,28,29.96,29.79,8,3,0,0.00
2013-2-12,60.6,48.8,40.8,45.8,43.6,39.4,98,84,51,30.10,29.95,4,2,0,0.00
2013-2-13,60.4,48.5,41.5,48.5,44.8,40.8,99,88,63,30.08,29.94,5,2,0,0.00
2013-2-14,66.7,54.1,43.5,47.4,44.3,42.0,99,73,43,29.98,29.89,6,2,0,0.00
2013-2-15,69.3,58.0,48.2,45.0,41.7,39.2,78,56,37,30.00,29.93,6,2,0,0.00
2013-2-16,66.9,55.1,47.7,49.2,45.7,41.9,94,72,50,29.96,29.78,7,3,0,0.00
2013-2-17,60.4,50.5,43.9,46.6,44.3,41.6,94,81,58,29.78,29.70,6,3,0,0.00
2013-2-18,53.2,47.3,45.0,44.3,40.8,36.7,93,78,62,29.77,29.70,9,3,0,0.00
2013-2-19,46.8,43.0,36.7,43.4,38.7,32.3,95,85,75,29.70,29.49,8,2,0,0.27
2013-2-20,57.2,46.3,36.0,43.2,37.8,32.3,89,73,51,29.80,29.58,5,2,0,0.00
2013-2-21,57.2,48.1,39.4,42.0,37.9,33.1,85,69,42,29.91,29.79,9,2,0,0.00
2013-2-22,60.4,48.5,40.3,46.4,41.9,35.9,95,79,52,30.00,29.90,8,2,0,0.00
2013-2-23,58.5,49.9,43.9,47.4,39.5,28.2,97,70,45,30.00,29.91,6,2,0,0.00
2013-2-24,59.7,50.6,45.3,42.5,32.5,23.4,90,53,28,29.99,29.91,7,4,0,0.00
2013-2-25,60.4,50.1,41.5,48.0,43.2,38.5,96,78,55,30.00,29.91,5,2,0,0.00
2013-2-26,63.3,51.5,43.7,42.3,36.0,25.7,86,59,26,29.95,29.88,8,3,0,0.00
2013-2-27,63.7,51.2,42.1,49.1,43.6,37.7,95,77,52,30.10,29.94,5,2,0,0.00
2013-2-28,64.0,51.9,46.6,51.6,48.1,45.3,98,88,64,30.19,30.10,6,2,0,0.00
2013-3-1,68.9,56.3,46.8,52.7,48.7,46.0,99,78,52,30.16,29.97,5,2,0,0.00
2013-3-2,67.1,55.6,48.9,53.3,48.5,46.7,94,78,56,29.97,29.81,5,2,0,0.00
2013-3-3,59.4,49.9,46.2,50.0,46.3,43.3,96,88,71,29.83,29.77,10,3,0,0.00
2013-3-4,53.2,46.9,43.2,44.0,42.4,39.6,93,85,68,29.88,29.79,6,2,0,0.00
2013-3-5,55.6,48.7,41.5,45.5,41.7,38.4,92,77,61,29.79,29.57,12,4,0,0.15
2013-3-6,54.5,49.2,41.7,48.6,42.1,37.4,99,77,56,29.80,29.57,11,3,0,0.16
2013-3-7,54.1,46.4,40.8,43.1,39.8,34.2,90,79,48,29.72,29.59,5,2,0,0.00
2013-3-8,56.3,48.9,43.7,43.2,40.9,36.3,90,75,60,29.78,29.56,6,2,0,0.00
2013-3-9,62.2,51.2,41.0,44.1,40.4,36.2,86,68,43,30.04,29.79,5,2,0,0.00
2013-3-10,66.2,52.6,44.6,47.5,42.3,37.5,89,70,40,30.08,29.99,7,2,0,0.00
2013-3-11,70.0,52.7,42.4,47.6,43.0,35.8,92,73,30,29.99,29.84,5,2,0,0.00
2013-3-12,68.9,52.3,45.5,49.5,45.7,43.6,93,80,49,29.89,29.81,5,2,0,0.00
2013-3-13,73.2,56.4,44.2,51.5,46.3,42.0,92,72,39,29.89,29.80,4,2,0,0.00
2013-3-14,60.8,50.7,45.5,49.0,45.1,43.0,92,82,65,29.90,29.81,6,3,0,0.00
2013-3-15,67.3,52.6,46.4,48.3,45.6,42.9,91,78,47,29.86,29.78,5,2,0,0.00
2013-3-16,64.0,51.6,46.4,48.8,44.8,42.0,93,79,52,29.86,29.77,6,3,0,0.00
2013-3-17,64.6,52.4,45.9,42.8,41.0,37.9,83,67,40,29.89,29.78,9,3,0,0.00
2013-3-18,62.6,50.6,44.6,44.3,42.7,40.1,89,75,48,29.85,29.77,6,2,0,0.00
2013-3-19,64.8,51.1,45.1,46.3,42.5,38.6,87,74,38,29.87,29.78,6,2,0,0.05
2013-3-20,57.0,51.6,47.7,51.2,47.4,42.2,93,86,67,29.87,29.79,6,2,0,0.15
2013-3-21,61.0,50.2,40.5,45.8,40.6,37.5,93,72,46,29.87,29.75,6,2,0,0.01
2013-3-22,64.0,52.4,43.3,41.0,33.4,18.5,80,53,19,29.86,29.77,6,2,0,0.00
2013-3-23,66.7,52.8,44.2,41.1,33.2,21.6,81,51,20,29.88,29.78,7,2,0,0.00
2013-3-24,62.1,51.0,44.8,44.5,42.5,40.9,89,74,51,29.83,29.70,6,3,0,0.00
2013-3-25,55.0,48.0,44.4,42.5,41.1,39.5,87,77,60,29.76,29.67,10,4,0,0.00
2013-3-26,59.0,51.5,45.7,44.6,42.5,39.8,86,72,57,29.74,29.67,7,3,0,0.00
2013-3-27,60.1,53.0,47.7,50.6,47.5,43.6,90,82,66,29.74,29.67,5,2,0,0.00
2013-3-28,63.7,54.9,51.4,52.3,49.7,47.9,91,83,66,29.82,29.73,9,2,0,0.00
2013-3-29,72.0,55.5,48.7,53.3,47.6,45.9,92,77,41,29.82,29.75,7,3,0,0.00
2013-3-30,65.3,55.1,50.0,51.5,48.9,44.9,92,81,50,29.80,29.71,6,3,0,0.05
2013-3-31,64.9,56.7,51.6,53.7,49.6,47.9,89,78,58,29.80,29.72,8,2,0,0.04
2013-4-1,60.8,54.6,50.4,54.3,50.0,46.7,93,85,70,29.89,29.77,7,2,0,0.68
2013-4-2,58.6,51.2,47.7,50.3,47.4,45.5,92,87,74,29.92,29.82,7,3,0,0.00
2013-4-3,71.4,52.1,47.1,53.0,46.8,45.1,93,84,39,29.87,29.73,5,3,0,0.00
2013-4-4,61.3,54.3,48.2,54.9,51.0,45.7,92,89,78,29.85,29.72,12,3,0,0.63
2013-4-5,60.6,54.7,50.9,53.3,50.7,48.6,93,86,72,29.93,29.84,8,3,0,0.02
2013-4-6,57.4,53.2,51.1,52.9,50.1,47.4,93,89,83,29.93,29.87,8,3,0,0.04
2013-4-7,59.0,53.2,50.5,53.2,48.9,45.0,92,85,74,29.91,29.57,9,3,0,0.04
2013-4-8,62.6,52.9,45.0,45.2,41.3,35.6,84,66,44,29.75,29.53,10,3,0,0.00
2013-4-9,71.4,62.2,54.5,47.5,38.8,32.1,60,42,31,29.84,29.76,9,4,0,0.00
2013-4-10,77.4,63.3,50.0,53.8,46.4,38.0,88,57,34,29.92,29.79,9,4,0,0.00
2013-4-11,66.0,53.8,47.3,49.0,45.6,42.8,89,75,49,29.81,29.58,6,4,0,0.00
2013-4-12,60.6,50.7,45.5,48.3,44.4,41.3,89,79,63,29.65,29.57,9,4,0,0.00
2013-4-13,63.1,52.2,46.0,49.4,43.3,39.8,87,72,60,29.64,29.55,7,4,0,0.00
2013-4-14,62.4,51.2,44.1,44.1,40.5,36.7,89,68,48,29.67,29.61,6,3,0,0.00
2013-4-15,59.4,48.9,42.8,45.7,39.4,35.8,91,71,52,29.68,29.59,9,3,0,0.00
2013-4-16,64.0,52.7,40.5,42.1,37.0,30.3,74,56,39,29.89,29.68,8,2,0,0.00
2013-4-17,66.9,57.7,52.0,42.2,35.1,26.7,66,44,24,30.01,29.89,10,4,0,0.00
2013-4-18,72.9,58.1,48.0,47.1,41.0,32.7,83,55,28,30.00,29.93,7,3,0,0.00
2013-4-19,73.6,56.5,46.6,51.4,46.1,41.4,88,69,45,29.97,29.81,7,3,0,0.00
2013-4-20,73.6,56.5,47.7,49.8,45.2,40.8,85,68,34,29.84,29.72,6,3,0,0.00
2013-4-21,78.4,61.7,47.3,53.4,46.1,37.5,84,59,31,29.78,29.67,5,2,0,0.00
2013-4-22,83.3,65.9,55.8,51.7,45.9,39.7,70,51,22,29.71,29.58,8,2,0,0.00
2013-4-23,76.1,60.5,47.7,49.1,39.4,25.2,87,53,17,29.67,29.59,8,5,0,0.00
2013-4-24,55.9,50.8,46.0,47.8,45.7,43.2,91,83,71,29.67,29.56,8,4,0,0.00
2013-4-25,58.5,53.6,50.0,49.0,47.7,45.7,90,81,68,29.82,29.67,6,3,0,0.00
2013-4-29,76.3,61.1,51.1,53.4,49.4,44.8,79,66,45,29.63,29.51,7,4,0,0.00
2013-4-30,68.4,58.5,49.1,50.5,44.6,25.4,82,62,20,29.60,29.52,6,3,0,0.00
2013-5-1,78.3,65.7,54.3,50.1,36.5,22.1,76,39,15,29.81,29.58,10,4,0,0.00
2013-5-2,88.5,69.5,55.9,52.2,38.1,27.5,76,36,14,29.89,29.81,8,3,0,0.00
2013-5-3,84.4,67.3,56.8,49.8,40.4,28.4,70,39,15,29.81,29.53,6,3,0,0.00
2013-5-4,75.9,60.6,52.3,52.3,47.7,34.1,85,65,31,29.53,29.29,10,3,0,0.00
2013-5-5,65.5,58.6,52.2,49.8,47.6,45.8,79,67,55,29.53,29.33,10,3,0,0.00
2013-5-6,67.3,59.9,53.6,51.4,49.8,47.8,85,70,52,29.69,29.53,6,2,0,0.00
2013-5-7,67.6,58.1,52.0,53.8,51.6,49.8,95,80,60,29.77,29.68,7,3,0,0.00
2013-5-8,59.0,52.9,50.4,50.8,48.7,46.7,95,86,72,29.87,29.76,7,3,0,0.00
2013-5-9,58.8,52.5,49.5,49.1,47.2,46.1,90,82,70,29.91,29.83,12,5,0,0.00
2013-5-10,55.2,51.2,48.9,50.0,48.5,46.6,96,91,82,29.92,29.85,10,4,0,0.00
2013-5-11,72.3,54.1,48.4,56.0,49.7,47.6,97,86,56,29.89,29.79,12,4,0,0.00
2013-5-12,63.9,55.3,50.4,54.3,51.3,49.0,96,87,71,29.90,29.77,8,4,0,0.00
2013-5-13,59.5,53.8,49.8,53.6,50.2,47.9,95,88,80,29.82,29.69,9,5,0,0.00
2013-5-14,61.9,54.5,49.5,51.4,47.9,44.4,91,79,68,29.73,29.66,11,6,0,0.00
2013-5-15,59.7,53.0,48.2,49.2,47.0,44.4,90,80,67,29.79,29.71,12,6,0,0.00
2013-5-16,60.4,54.1,51.1,53.8,50.2,48.4,93,87,77,29.77,29.70,8,4,0,0.00
2013-5-24,55.8,48.5,47.7,44.2,37.4,-99.9,82,72,65,29.93,29.91,8,-30,0,0.00
2013-5-25,62.1,52.7,46.0,47.0,44.8,42.2,87,75,57,30.00,29.92,11,4,0,0.00
2013-5-26,59.4,54.3,50.4,51.3,49.1,46.7,91,83,71,30.03,29.97,10,4,0,0.00
2013-5-27,57.0,53.8,50.5,52.3,50.2,47.1,91,88,80,30.01,29.87,7,3,0,0.15
2013-5-28,63.1,55.7,52.2,56.1,51.2,48.8,92,85,68,29.89,29.82,8,3,0,0.04
2013-5-29,63.0,55.6,50.5,52.3,48.8,44.8,89,78,66,29.88,29.81,7,4,0,0.00
2013-5-30,67.1,56.4,47.7,48.2,45.5,43.0,88,68,50,29.91,29.84,7,3,0,0.00
2013-5-31,76.6,58.4,48.2,51.9,46.1,41.7,83,65,41,29.94,29.84,9,4,0,0.00
2013-6-1,75.6,59.3,50.0,53.0,46.6,43.8,82,64,44,29.86,29.71,8,4,0,0.00
2013-6-2,61.0,53.3,48.9,48.4,46.8,45.8,89,79,63,29.73,29.63,11,6,0,0.00
2013-6-3,66.6,55.2,48.4,50.6,47.8,45.0,89,77,56,29.83,29.68,8,3,0,0.00
2013-6-4,132.6,57.3,51.6,99.9,50.9,47.2,98,80,66,29.93,29.82,9,4,0,0.00
2013-6-5,60.1,53.3,50.5,49.1,47.4,46.4,88,81,67,29.98,29.90,8,4,0,0.00
2013-6-6,63.9,53.6,49.3,49.7,48.0,46.5,91,82,60,29.93,29.82,12,5,0,0.00
2013-6-7,72.1,57.2,50.4,54.0,49.7,47.2,91,77,53,29.87,29.71,6,4,0,0.00
2013-6-8,69.1,63.2,54.1,52.2,50.8,49.1,83,65,55,29.74,29.73,5,4,0,0.00
2013-6-19,69.4,59.9,53.2,49.6,43.7,-99.9,72,58,48,30.04,29.98,7,-14,0,0.00
2013-6-20,66.9,57.4,50.2,48.4,45.9,43.6,83,67,50,29.99,29.93,8,4,0,0.00
2013-6-21,72.0,56.6,49.1,48.9,47.2,45.5,89,72,44,29.96,29.89,8,4,0,0.00
2013-6-22,74.8,58.5,49.6,50.8,48.0,45.2,90,70,43,29.92,29.83,9,4,0,0.00
2013-6-23,60.1,55.6,52.0,57.8,53.3,49.5,92,92,90,29.86,29.79,9,4,0,0.08
2013-6-24,58.8,55.6,52.7,55.7,53.1,50.4,93,91,87,29.89,29.77,5,2,0,0.05
2013-6-25,69.1,62.5,59.0,62.5,58.8,54.4,91,88,77,29.97,29.86,7,3,0,0.30
2013-6-26,135.1,66.6,59.2,99.9,55.4,45.4,91,69,56,30.04,29.95,6,2,0,0.03
2013-6-27,75.7,65.1,56.1,59.0,55.3,52.9,91,72,53,30.06,30.00,6,3,0,0.00
2013-6-28,81.1,64.4,55.4,59.5,54.3,52.0,90,71,47,30.02,29.88,9,4,0,0.00
2013-6-29,81.0,65.1,57.0,58.2,53.0,50.4,81,66,46,29.90,29.78,7,4,0,0.00
2013-6-30,66.4,59.8,54.9,54.7,52.6,51.1,88,78,65,29.83,29.74,11,6,0,0.00
2013-7-1,83.5,60.9,53.4,59.9,52.2,50.8,91,76,42,29.83,29.78,9,5,0,0.00
2013-7-2,69.3,58.6,54.5,56.4,53.4,51.5,91,83,62,29.90,29.80,10,5,0,0.00
2013-7-3,76.3,61.5,55.0,58.4,54.3,52.7,92,79,50,29.89,29.73,9,4,0,0.00
2013-7-4,69.1,61.6,54.9,55.8,52.7,47.3,89,73,62,29.76,29.66,9,5,0,0.00
2013-7-5,59.5,55.1,52.2,50.2,48.9,48.1,87,80,71,29.76,29.68,12,6,0,0.00
2013-7-6,64.0,54.7,52.0,52.0,49.2,48.3,88,82,65,29.78,29.71,12,5,0,0.00
2013-7-7,67.8,57.2,52.9,54.3,50.6,49.0,87,79,61,29.83,29.76,8,4,0,0.00
2013-7-8,68.2,58.1,53.1,53.3,51.0,49.1,90,78,59,29.95,29.83,9,4,0,0.00
2013-7-9,70.0,57.6,51.1,56.4,51.0,48.6,91,80,57,30.00,29.91,10,4,0,0.00
2013-7-10,62.8,55.3,51.8,52.5,50.6,48.5,91,84,69,29.96,29.87,9,4,0,0.00
2013-7-11,65.1,53.8,50.7,52.4,49.1,47.6,90,84,62,29.92,29.85,11,5,0,0.00
2013-7-12,62.1,56.0,52.3,52.2,49.6,48.1,86,79,70,29.92,29.86,11,5,0,0.00
2013-7-13,65.1,56.6,52.2,53.5,50.2,48.5,88,80,66,29.94,29.87,10,5,0,0.00
2013-7-14,58.8,54.4,52.0,51.3,49.5,48.6,88,84,75,29.98,29.88,12,5,0,0.00
2013-7-15,89.8,58.2,51.6,58.5,50.2,47.6,88,75,35,29.90,29.82,9,4,0,0.00
2013-7-16,66.6,59.8,54.0,55.4,51.9,48.4,83,75,63,30.00,29.84,7,3,0,0.02
2013-7-17,70.9,63.7,57.2,53.7,51.2,49.3,82,65,52,30.08,29.99,9,4,0,0.00
2013-7-18,66.2,62.6,58.8,51.0,49.9,48.8,70,63,58,30.05,29.91,9,4,0,0.00
2013-7-19,66.9,62.0,59.0,51.6,49.8,48.5,69,64,57,29.93,29.80,10,6,0,0.00
2013-7-20,65.5,60.7,57.0,50.6,49.0,48.0,72,65,58,29.84,29.73,10,5,0,0.00
2013-7-21,77.0,66.9,57.2,54.7,50.4,48.3,72,56,41,29.86,29.75,11,5,0,0.00
2013-7-22,71.2,67.7,65.5,54.2,52.4,50.3,61,58,55,29.94,29.85,10,4,0,0.00
2013-7-23,75.7,68.0,63.1,56.3,52.8,50.9,66,59,51,29.99,29.90,10,3,0,0.00
2013-7-24,72.9,65.5,59.4,54.8,51.8,49.6,70,62,52,29.97,29.88,9,5,0,0.00
2013-7-25,68.0,61.7,58.5,52.2,50.2,48.6,71,66,57,30.00,29.90,10,5,0,0.00
2013-7-26,66.7,62.2,59.0,53.2,51.1,49.2,71,67,60,30.08,29.98,9,4,0,0.00
2013-7-27,66.2,62.8,59.7,52.6,51.1,49.8,70,66,61,30.01,29.84,8,4,0,0.00
2013-7-28,63.5,61.4,59.2,51.0,50.3,48.8,70,67,63,29.86,29.79,10,4,0,0.00
2013-7-29,72.3,64.9,59.2,53.1,50.5,48.9,70,60,51,29.98,29.81,9,5,0,0.00
2013-7-30,69.3,63.4,58.1,51.9,49.7,48.4,70,61,53,30.08,29.99,10,4,0,0.00
2013-7-31,64.9,61.3,57.7,50.6,49.4,46.0,70,65,59,30.07,29.98,10,5,0,0.00
2013-8-1,60.4,60.4,60.4,46.0,46.0,46.0,59,59,59,30.04,29.93,11,5,0,0.00
2013-8-2,60.4,60.4,60.4,46.0,46.0,46.0,59,59,59,29.96,29.88,10,5,0,0.00
2013-8-17,70.3,67.4,64.2,56.2,54.4,52.7,69,63,56,29.94,29.82,19,12,0,0.03
2013-8-18,89.2,78.5,69.1,60.8,57.1,53.6,60,48,37,29.84,29.72,6,4,0,0.00
2013-8-19,100.0,72.1,64.9,62.9,54.4,51.1,66,54,30,29.85,29.74,9,4,0,0.00
2013-8-20,85.1,71.8,65.1,58.9,54.4,51.5,63,55,41,29.84,29.76,11,4,0,0.00
2013-8-21,77.9,68.3,64.8,54.8,51.9,50.6,61,56,45,29.89,29.81,9,4,0,0.00
2013-8-22,75.9,68.3,64.4,54.2,51.6,50.4,62,55,46,29.92,29.83,7,4,0,0.00
2013-8-23,68.0,65.4,62.8,52.2,51.3,50.0,66,60,57,29.88,29.75,10,4,0,0.00
2013-8-24,73.4,67.7,62.4,56.8,53.4,51.1,67,61,50,29.85,29.78,10,5,0,0.00
2013-8-25,84.6,72.6,67.1,62.1,57.2,54.5,66,59,47,29.89,29.83,5,3,0,0.01
2013-8-26,79.5,69.3,64.2,57.5,54.2,52.1,67,59,47,29.95,29.84,7,3,0,0.02
2013-8-27,72.0,66.3,61.3,56.2,53.8,51.0,70,64,54,29.85,29.77,7,4,0,0.00
2013-8-28,81.3,69.6,64.0,60.9,57.0,53.6,70,65,50,29.88,29.79,7,4,0,0.01
2013-8-29,80.6,71.8,66.0,61.3,58.1,55.7,70,62,52,30.01,29.88,7,3,0,0.01
2013-8-30,86.9,72.5,64.9,63.6,57.5,54.1,70,60,45,29.99,29.86,7,4,0,0.00
2013-8-31,73.2,66.8,62.1,57.1,54.6,52.3,71,65,56,29.92,29.84,8,5,0,0.00
2013-9-1,77.9,69.5,63.3,58.9,55.9,52.2,69,62,52,29.90,29.82,8,4,0,0.00
2013-9-2,84.2,72.8,67.3,62.4,59.0,56.2,70,63,48,29.91,29.82,5,3,0,0.00
2013-9-3,79.0,70.6,65.5,59.4,57.0,55.3,70,63,48,29.95,29.86,7,4,0,0.00
2013-9-4,83.5,73.0,67.1,61.1,57.5,54.9,67,59,46,29.98,29.88,10,4,0,0.00
2013-9-5,82.0,71.1,64.9,60.0,55.8,52.2,68,59,46,29.97,29.88,10,4,0,0.00
2013-9-6,149.4,71.8,64.0,99.9,57.6,46.8,98,48,29,29.92,29.77,4,2,0,0.00
2013-9-7,95.7,74.9,60.3,60.6,53.0,46.6,74,49,25,29.82,29.74,6,2,0,0.00
2013-9-8,79.2,64.3,60.4,60.0,53.4,52.1,74,68,51,29.81,29.69,6,4,0,0.00
2013-9-9,62.2,62.2,62.2,52.3,52.3,52.3,70,70,70,29.75,29.65,8,4,0,0.00
2013-9-10,62.2,62.2,62.2,52.3,52.3,52.3,70,70,70,29.78,29.67,10,4,0,0.02
2013-10-9,74.7,67.7,60.8,48.9,45.7,42.1,56,46,34,29.70,29.59,7,3,0,0.13
2013-10-10,75.9,64.1,57.7,51.6,46.7,40.7,64,53,40,29.95,29.69,8,2,0,0.00
2013-10-11,69.8,59.5,54.1,47.5,45.2,43.6,71,60,44,30.02,29.92,6,3,0,0.00
2013-10-12,86.2,60.3,54.9,51.1,45.7,43.2,69,59,30,29.95,29.85,7,3,0,0.00
2013-10-13,79.9,65.8,57.9,51.5,44.8,37.7,63,48,24,30.01,29.86,7,2,0,0.00
2013-10-14,81.7,67.9,57.7,47.7,41.2,35.5,61,40,22,30.07,29.95,7,2,0,0.00
2013-10-15,84.7,69.7,59.0,47.9,37.1,30.4,58,33,15,29.99,29.89,9,2,0,0.00
2013-10-16,91.0,71.9,60.6,47.4,36.5,30.4,57,30,14,30.03,29.93,5,2,0,0.00
2013-10-17,87.8,69.1,57.0,49.1,39.9,30.7,67,38,16,30.02,29.91,5,2,0,0.00
2013-10-18,76.8,60.9,52.9,50.7,45.8,40.4,72,59,40,30.00,29.92,5,2,0,0.00
2013-10-19,88.3,64.4,54.3,51.6,45.2,40.4,70,52,23,30.02,29.94,5,2,0,0.00
2013-10-20,73.9,58.3,52.9,50.6,45.2,42.4,74,63,44,29.96,29.86,6,3,0,0.00
2013-10-21,68.0,59.8,55.6,48.3,45.5,44.4,67,59,48,29.95,29.86,6,3,0,0.00
2013-10-22,76.5,59.8,55.8,53.6,46.3,44.3,68,61,45,29.96,29.86,6,3,0,0.00
2013-10-23,76.1,59.2,55.2,50.7,45.8,43.6,68,62,41,29.92,29.85,8,3,0,0.00
2013-10-24,66.6,59.7,57.4,47.4,45.5,44.3,64,59,50,30.04,29.92,5,2,0,0.00
2013-10-25,75.6,63.0,56.3,51.1,46.9,43.6,66,56,42,30.12,30.03,5,2,0,0.00
2013-10-26,85.1,64.0,55.2,54.5,47.3,44.1,69,56,30,30.09,29.96,6,3,0,0.00
2013-10-27,62.4,58.0,54.9,47.6,45.8,44.3,69,64,56,29.98,29.62,10,4,0,0.00
2013-10-28,68.5,60.1,55.0,48.0,45.7,42.2,66,59,48,29.78,29.61,8,3,0,0.00
2013-10-29,68.5,61.3,56.7,48.0,45.7,43.4,64,57,44,29.99,29.78,4,2,0,0.00
2013-10-30,73.0,61.4,55.9,50.5,45.2,41.6,65,56,43,30.10,29.99,5,1,0,0.00
2013-10-31,79.7,64.9,56.7,49.8,44.0,39.2,64,48,30,30.13,30.02,3,1,0,0.00
2013-11-1,79.0,67.1,56.8,49.1,44.4,39.2,65,45,30,30.08,29.95,7,2,0,0.00
2013-11-2,66.9,59.2,53.1,49.6,45.4,42.2,73,61,42,29.97,29.85,6,2,0,0.00
2013-11-3,72.0,60.5,54.1,45.3,39.3,29.8,60,47,21,30.00,29.87,4,1,0,0.00
2013-11-4,70.9,61.0,50.5,41.4,35.7,30.1,56,40,25,30.01,29.86,8,1,0,0.00
2013-11-5,79.3,65.1,56.3,41.4,34.4,31.4,52,33,19,30.16,30.00,5,1,0,0.00
2013-11-6,73.9,65.0,55.0,41.1,38.6,32.9,55,39,28,30.20,30.11,5,1,0,0.00
2013-11-7,78.3,63.4,55.9,49.0,42.7,36.7,74,49,27,30.12,30.02,7,2,0,0.00
2013-11-8,77.9,62.3,53.2,53.2,47.2,42.9,73,59,40,30.03,29.91,6,3,0,0.00
2013-11-9,77.7,58.8,52.2,49.7,46.1,42.3,74,64,36,29.98,29.92,5,2,0,0.00
2013-11-10,68.5,59.2,53.8,49.9,46.6,44.2,72,63,51,30.06,29.97,4,2,0,0.00
2013-11-11,70.9,60.5,54.1,51.4,46.8,43.9,71,61,48,30.11,30.02,6,2,0,0.00
2013-11-12,75.4,64.2,58.1,50.8,47.4,44.4,71,55,37,30.22,30.10,4,1,0,0.00
2013-11-13,75.2,52.3,-40.0,55.3,40.7,-99.9,78,66,28,30.19,30.04,6,2,0,0.00
2013-11-14,55.4,55.4,55.4,48.3,48.3,48.3,77,77,77,30.06,29.84,6,3,0,0.00